createdAt,value
2019-02-11T00:00:30.903Z,99597.56
2019-02-11T00:02:59.541Z,99591.19
2019-02-11T00:05:28.032Z,99592.26
2019-02-11T00:07:56.452Z,99580.76
2019-02-11T00:10:24.961Z,99572.41
2019-02-11T00:12:53.566Z,99570.55
2019-02-11T00:15:21.995Z,99571.38
2019-02-11T00:17:50.558Z,99571.11
2019-02-11T00:20:19.182Z,99566.35
2019-02-11T00:22:47.765Z,99564.31
2019-02-11T00:25:16.182Z,99566.83
2019-02-11T00:27:44.726Z,99564.47
2019-02-11T00:30:13.228Z,99565.19
2019-02-11T00:32:41.813Z,99579.51
2019-02-11T00:35:10.382Z,99579.51
2019-02-11T00:37:38.927Z,99569.64
2019-02-11T00:40:08.777Z,99569.80
2019-02-11T00:42:37.350Z,99569.80
2019-02-11T00:45:07.718Z,99563.84
2019-02-11T00:47:36.197Z,99569.80
2019-02-11T00:50:07.728Z,99567.58
2019-02-11T00:52:36.290Z,99562.38
2019-02-11T00:55:05.612Z,99560.33
2019-02-11T00:57:34.036Z,99549.05
2019-02-11T01:00:02.536Z,99549.05
2019-02-11T01:02:31.093Z,99552.56
2019-02-11T01:04:59.578Z,99558.24
2019-02-11T01:07:28.016Z,99551.91
2019-02-11T01:09:56.564Z,99560.54
2019-02-11T01:12:25.116Z,99560.44
2019-02-11T01:14:53.775Z,99560.44
2019-02-11T01:17:22.199Z,99548.74
2019-02-11T01:19:50.713Z,99534.14
2019-02-11T01:22:19.202Z,99531.55
2019-02-11T01:24:47.690Z,99529.95
2019-02-11T01:27:16.104Z,99532.91
2019-02-11T01:29:44.590Z,99538.45
2019-02-11T01:32:13.084Z,99534.97
2019-02-11T01:34:41.798Z,99551.02
2019-02-11T01:37:10.276Z,99557.77
2019-02-11T01:39:38.686Z,99555.17
2019-02-11T01:42:07.161Z,99559.45
2019-02-11T01:44:35.658Z,99561.08
2019-02-11T01:47:04.077Z,99547.41
2019-02-11T01:49:32.642Z,99541.74
2019-02-11T01:52:01.136Z,99542.24
2019-02-11T01:54:29.626Z,99536.23
2019-02-11T01:56:58.182Z,99542.26
2019-02-11T01:59:26.741Z,99536.57
2019-02-11T02:01:55.245Z,99523.84
2019-02-11T02:04:23.738Z,99523.84
2019-02-11T02:06:52.224Z,99518.15
2019-02-11T02:09:20.704Z,99508.25
2019-02-11T02:11:49.195Z,99503.83
2019-02-11T02:14:17.756Z,99512.17
2019-02-11T02:16:46.247Z,99499.17
2019-02-11T02:19:14.679Z,99496.09
2019-02-11T02:21:43.093Z,99499.51
2019-02-11T02:24:11.663Z,99502.25
2019-02-11T02:26:40.158Z,99503.97
2019-02-11T02:29:08.584Z,99500.57
2019-02-11T02:31:37.078Z,99491.48
2019-02-11T02:34:05.634Z,99491.48
2019-02-11T02:36:34.176Z,99486.66
2019-02-11T02:39:02.601Z,99486.66
2019-02-11T02:41:31.092Z,99492.86
2019-02-11T02:43:59.584Z,99494.17
2019-02-11T02:46:27.997Z,99494.17
2019-02-11T02:48:56.415Z,99496.76
2019-02-11T02:51:24.968Z,99487.84
2019-02-11T02:53:53.372Z,99469.36
2019-02-11T02:56:21.787Z,99475.67
2019-02-11T02:58:50.286Z,99483.34
2019-02-11T03:01:18.770Z,99458.41
2019-02-11T03:03:47.340Z,99461.41
2019-02-11T03:06:15.746Z,99485.13
2019-02-11T03:08:44.333Z,99479.24
2019-02-11T03:11:12.885Z,99476.54
2019-02-11T03:13:41.381Z,99479.05
2019-02-11T03:16:09.881Z,99479.05
2019-02-11T03:18:38.443Z,99480.65
2019-02-11T03:21:06.996Z,99482.37
2019-02-11T03:23:35.610Z,99481.55
2019-02-11T03:26:04.097Z,99481.55
2019-02-11T03:28:32.606Z,99476.30
2019-02-11T03:31:01.097Z,99473.72
2019-02-11T03:33:29.571Z,99471.89
2019-02-11T03:35:58.047Z,99471.89
2019-02-11T03:38:26.610Z,99473.12
2019-02-11T03:40:55.044Z,99465.34
2019-02-11T03:43:23.522Z,99468.70
2019-02-11T03:45:51.945Z,99482.03
2019-02-11T03:48:20.422Z,99471.75
2019-02-11T03:50:48.920Z,99465.29
2019-02-11T03:53:17.399Z,99468.41
2019-02-11T03:55:46.033Z,99481.25
2019-02-11T03:58:14.590Z,99479.28
2019-02-11T04:00:43.093Z,99469.02
2019-02-11T04:03:11.568Z,99466.79
2019-02-11T04:05:39.986Z,99459.56
2019-02-11T04:08:08.575Z,99452.14
2019-02-11T04:10:36.986Z,99445.66
2019-02-11T04:13:05.466Z,99436.23
2019-02-11T04:15:33.969Z,99456.09
2019-02-11T04:18:02.464Z,99474.45
2019-02-11T04:20:30.958Z,99468.35
2019-02-11T04:22:59.522Z,99445.55
2019-02-11T04:25:28.062Z,99445.55
2019-02-11T04:27:56.493Z,99422.89
2019-02-11T04:30:25.003Z,99420.09
2019-02-11T04:32:53.650Z,99420.09
2019-02-11T04:35:22.287Z,99420.44
2019-02-11T04:37:50.963Z,99403.88
2019-02-11T04:40:19.547Z,99384.91
2019-02-11T04:42:48.122Z,99384.91
2019-02-11T04:45:16.626Z,99383.42
2019-02-11T04:47:45.068Z,99386.91
2019-02-11T04:50:13.562Z,99385.22
2019-02-11T04:52:42.008Z,99380.66
2019-02-11T04:55:10.663Z,99383.16
2019-02-11T04:57:39.168Z,99387.08
2019-02-11T05:00:13.280Z,99391.55
2019-02-11T05:02:41.839Z,99402.52
2019-02-11T05:05:10.610Z,99402.58
2019-02-11T05:07:39.244Z,99413.67
2019-02-11T05:10:13.130Z,99419.77
2019-02-11T05:12:41.687Z,99431.45
2019-02-11T05:15:11.412Z,99424.73
2019-02-11T05:17:39.993Z,99432.56
2019-02-11T05:20:10.988Z,99421.39
2019-02-11T05:22:39.648Z,99423.19
2019-02-11T05:25:08.929Z,99420.11
2019-02-11T05:27:37.595Z,99427.84
2019-02-11T05:30:08.829Z,99428.63
2019-02-11T05:32:37.330Z,99423.46
2019-02-11T05:35:07.141Z,99402.80
2019-02-11T05:37:35.646Z,99388.97
2019-02-11T05:40:06.777Z,99387.31
2019-02-11T05:42:35.339Z,99382.20
2019-02-11T05:45:04.586Z,99380.67
2019-02-11T05:47:33.220Z,99380.67
2019-02-11T05:50:01.737Z,99352.06
2019-02-11T05:52:30.294Z,99384.71
2019-02-11T05:54:58.818Z,99373.48
2019-02-11T05:57:27.293Z,99373.64
2019-02-11T05:59:55.836Z,99373.64
2019-02-11T06:02:24.472Z,99383.31
2019-02-11T06:04:52.961Z,99392.27
2019-02-11T06:07:21.405Z,99394.08
2019-02-11T06:09:49.892Z,99395.70
2019-02-11T06:12:18.310Z,99404.61
2019-02-11T06:14:46.860Z,99401.10
2019-02-11T06:17:15.480Z,99399.19
2019-02-11T06:19:44.164Z,99391.70
2019-02-11T06:22:12.863Z,99391.70
2019-02-11T06:24:41.510Z,99394.33
2019-02-11T06:27:10.108Z,99411.28
2019-02-11T06:29:38.681Z,99414.44
2019-02-11T06:32:07.196Z,99416.17
2019-02-11T06:34:35.780Z,99428.13
2019-02-11T06:37:04.270Z,99420.20
2019-02-11T06:39:32.905Z,99432.52
2019-02-11T06:42:01.386Z,99451.79
2019-02-11T06:44:29.974Z,99464.41
2019-02-11T06:46:58.535Z,99463.84
2019-02-11T06:49:27.157Z,99456.12
2019-02-11T06:51:55.827Z,99438.39
2019-02-11T06:54:24.412Z,99443.77
2019-02-11T06:56:52.960Z,99440.07
2019-02-11T06:59:21.445Z,99429.63
2019-02-11T07:01:50.032Z,99415.09
2019-02-11T07:04:18.737Z,99418.77
2019-02-11T07:06:47.193Z,99413.66
2019-02-11T07:09:15.825Z,99413.33
2019-02-11T07:11:44.367Z,99415.21
2019-02-11T07:14:12.862Z,99416.95
2019-02-11T07:16:41.445Z,99417.38
2019-02-11T07:19:10.080Z,99420.98
2019-02-11T07:21:38.708Z,99424.62
2019-02-11T07:24:07.279Z,99420.03
2019-02-11T07:26:35.793Z,99420.69
2019-02-11T07:29:04.282Z,99420.91
2019-02-11T07:31:32.783Z,99421.00
2019-02-11T07:34:01.277Z,99410.86
2019-02-11T07:36:29.850Z,99409.48
2019-02-11T07:38:58.346Z,99408.19
2019-02-11T07:41:28.556Z,99406.21
2019-02-11T07:44:01.471Z,99406.30
2019-02-11T07:46:31.681Z,99404.06
2019-02-11T07:49:00.324Z,99409.05
2019-02-11T07:51:28.808Z,99410.66
2019-02-11T07:53:57.232Z,99405.94
2019-02-11T07:56:25.805Z,99397.76
2019-02-11T07:58:54.363Z,99393.91
2019-02-11T08:01:22.939Z,99402.33
2019-02-11T08:03:51.420Z,99393.91
2019-02-11T08:06:19.985Z,99390.74
2019-02-11T08:08:48.623Z,99394.47
2019-02-11T08:11:17.190Z,99383.79
2019-02-11T08:13:45.749Z,99374.23
2019-02-11T08:16:14.333Z,99370.41
2019-02-11T08:18:42.894Z,99372.14
2019-02-11T08:21:11.476Z,99368.19
2019-02-11T08:23:40.046Z,99352.33
2019-02-11T08:26:08.608Z,99339.90
2019-02-11T08:28:37.174Z,99327.89
2019-02-11T08:31:06.215Z,99332.87
2019-02-11T08:33:34.721Z,99347.34
2019-02-11T08:36:03.310Z,99348.23
2019-02-11T08:38:31.810Z,99347.86
2019-02-11T08:41:01.062Z,99337.66
2019-02-11T08:43:29.489Z,99333.62
2019-02-11T08:45:58.036Z,99321.47
2019-02-11T08:48:26.601Z,99260.19
2019-02-11T08:50:55.233Z,99332.00
2019-02-11T08:53:23.855Z,99343.00
2019-02-11T08:55:52.878Z,99359.89
2019-02-11T08:58:22.022Z,99340.46
2019-02-11T09:00:51.108Z,99327.74
2019-02-11T09:03:20.255Z,99317.55
2019-02-11T09:05:49.498Z,99313.33
2019-02-11T09:08:18.646Z,99301.35
2019-02-11T09:10:47.722Z,99290.61
2019-02-11T09:13:16.820Z,99296.77
2019-02-11T09:15:45.823Z,99293.83
2019-02-11T09:18:14.902Z,99294.78
2019-02-11T09:20:44.017Z,99297.18
2019-02-11T09:23:13.173Z,99280.38
2019-02-11T09:25:42.316Z,99280.81
2019-02-11T09:28:11.451Z,99267.30
2019-02-11T09:30:40.655Z,99280.07
2019-02-11T09:33:09.800Z,99265.90
2019-02-11T09:35:38.876Z,99254.27
2019-02-11T09:38:08.021Z,99249.91
2019-02-11T09:40:37.042Z,99252.83
2019-02-11T09:43:06.278Z,99237.06
2019-02-11T09:45:35.429Z,99237.97
2019-02-11T09:48:04.511Z,99243.50
2019-02-11T09:51:01.982Z,99236.43
2019-02-11T09:53:31.060Z,99225.57
2019-02-11T09:56:00.136Z,99222.97
2019-02-11T09:58:29.369Z,99203.89
2019-02-11T10:00:58.617Z,99197.93
2019-02-11T10:03:27.781Z,99193.27
2019-02-11T10:05:56.865Z,99187.55
2019-02-11T10:08:25.959Z,99186.81
2019-02-11T10:10:55.062Z,99172.91
2019-02-11T10:13:24.160Z,99176.16
2019-02-11T10:15:53.264Z,99173.62
2019-02-11T10:18:22.360Z,99164.22
2019-02-11T10:20:51.518Z,99165.84
2019-02-11T10:23:20.696Z,99162.44
2019-02-11T10:25:49.823Z,99150.77
2019-02-11T10:28:18.901Z,99149.55
2019-02-11T10:30:48.069Z,99139.33
2019-02-11T10:33:17.175Z,99141.30
2019-02-11T10:35:46.341Z,99132.77
2019-02-11T10:38:15.490Z,99123.41
2019-02-11T10:40:44.585Z,99112.53
2019-02-11T10:43:13.686Z,99111.67
2019-02-11T10:45:42.811Z,99108.25
2019-02-11T10:48:11.923Z,99107.77
2019-02-11T10:50:41.100Z,99105.42
2019-02-11T10:53:10.261Z,99106.93
2019-02-11T10:55:39.443Z,99107.41
2019-02-11T10:58:08.633Z,99095.50
2019-02-11T11:00:37.899Z,99080.23
2019-02-11T11:03:06.928Z,99086.03
2019-02-11T11:05:36.023Z,99090.80
2019-02-11T11:08:05.229Z,99087.61
2019-02-11T11:10:58.062Z,99083.67
2019-02-11T11:13:27.148Z,99076.34
2019-02-11T11:15:56.330Z,99065.72
2019-02-11T11:18:25.419Z,99059.22
2019-02-11T11:20:54.574Z,99040.84
2019-02-11T11:23:23.666Z,99040.55
2019-02-11T11:25:52.827Z,99034.44
2019-02-11T11:28:21.968Z,99031.38
2019-02-11T11:30:51.122Z,99038.80
2019-02-11T11:33:20.273Z,99033.20
2019-02-11T11:35:49.409Z,99022.70
2019-02-11T11:38:18.492Z,99024.05
2019-02-11T11:40:47.656Z,99014.33
2019-02-11T11:43:16.785Z,99011.61
2019-02-11T11:45:45.874Z,98999.28
2019-02-11T11:48:15.077Z,98997.02
2019-02-11T11:50:44.242Z,98992.75
2019-02-11T11:53:13.340Z,98990.41
2019-02-11T11:55:42.468Z,98990.77
2019-02-11T11:58:11.606Z,98979.52
2019-02-11T12:00:40.775Z,98967.75
2019-02-11T12:03:09.908Z,98951.92
2019-02-11T12:05:39.126Z,98954.28
2019-02-11T12:08:08.204Z,98948.45
2019-02-11T12:10:37.303Z,98938.91
2019-02-11T12:13:21.837Z,98932.77
2019-02-11T12:15:37.457Z,98931.97
2019-02-11T12:18:06.551Z,98930.36
2019-02-11T12:20:35.700Z,98928.13
2019-02-11T12:23:04.822Z,98913.95
2019-02-11T12:25:33.871Z,98912.64
2019-02-11T12:28:03.089Z,98907.17
2019-02-11T12:30:32.262Z,98906.83
2019-02-11T12:33:01.480Z,98896.98
2019-02-11T12:35:30.705Z,98898.91
2019-02-11T12:37:59.725Z,98898.29
2019-02-11T12:40:28.845Z,98895.13
2019-02-11T12:42:57.914Z,98894.42
2019-02-11T12:45:27.128Z,98884.83
2019-02-11T12:47:56.303Z,98878.27
2019-02-11T12:50:25.556Z,98880.81
2019-02-11T12:52:54.747Z,98881.77
2019-02-11T12:55:23.822Z,98880.58
2019-02-11T12:57:52.965Z,98877.61
2019-02-11T13:00:25.068Z,98877.11
2019-02-11T13:02:54.301Z,98884.24
2019-02-11T13:05:42.598Z,98885.16
2019-02-11T13:07:54.365Z,98877.89
2019-02-11T13:10:23.543Z,98877.70
2019-02-11T13:12:52.715Z,98871.00
2019-02-11T13:15:53.138Z,98887.10
2019-02-11T13:17:52.873Z,98888.50
2019-02-11T13:20:22.086Z,98879.53
2019-02-11T13:22:51.164Z,98883.79
2019-02-11T13:25:20.305Z,98888.58
2019-02-11T13:27:49.405Z,98889.98
2019-02-11T13:30:20.539Z,98897.59
2019-02-11T13:32:49.691Z,98890.34
2019-02-11T13:35:18.942Z,98883.80
2019-02-11T13:37:48.291Z,98882.70
2019-02-11T13:40:17.567Z,98883.27
2019-02-11T13:42:46.812Z,98875.73
2019-02-11T13:45:22.053Z,98880.75
2019-02-11T13:47:56.352Z,98886.48
2019-02-11T13:50:24.397Z,98892.53
2019-02-11T13:52:53.480Z,98898.41
2019-02-11T13:55:23.066Z,98894.47
2019-02-11T13:57:52.269Z,98883.82
2019-02-11T14:00:49.932Z,98900.53
2019-02-11T14:03:20.064Z,98896.52
2019-02-11T14:05:47.537Z,98892.36
2019-02-11T14:08:16.747Z,98890.98
2019-02-11T14:10:45.910Z,98887.97
2019-02-11T14:13:15.088Z,98891.47
2019-02-11T14:15:44.267Z,98889.48
2019-02-11T14:18:15.409Z,98881.41
2019-02-11T14:20:44.359Z,98880.16
2019-02-11T14:23:13.591Z,98873.45
2019-02-11T14:25:46.645Z,98871.20
2019-02-11T14:28:13.796Z,98859.59
2019-02-11T14:30:43.225Z,98857.06
2019-02-11T14:33:12.597Z,98855.95
2019-02-11T14:35:41.779Z,98844.69
2019-02-11T14:38:10.854Z,98851.03
2019-02-11T14:40:40.064Z,98853.30
2019-02-11T14:43:09.287Z,98855.95
2019-02-11T14:45:38.449Z,98859.95
2019-02-11T14:48:07.650Z,98848.89
2019-02-11T14:50:36.731Z,98840.70
2019-02-11T14:53:05.886Z,98846.42
2019-02-11T14:55:35.020Z,98852.38
2019-02-11T14:58:04.180Z,98853.13
2019-02-11T15:00:33.401Z,98851.12
2019-02-11T15:03:02.578Z,98849.24
2019-02-11T15:05:31.580Z,98855.95
2019-02-11T15:08:00.747Z,98850.58
2019-02-11T15:10:29.887Z,98847.70
2019-02-11T15:12:59.053Z,98852.95
2019-02-11T15:15:28.206Z,98859.34
2019-02-11T15:17:57.368Z,98849.97
2019-02-11T15:20:26.460Z,98856.23
2019-02-11T15:22:55.623Z,98840.52
2019-02-11T15:25:25.283Z,98834.81
2019-02-11T15:27:54.443Z,98821.00
2019-02-11T15:30:23.524Z,98823.83
2019-02-11T15:32:52.712Z,98844.31
2019-02-11T15:35:21.945Z,98824.59
2019-02-11T15:37:51.051Z,98817.41
2019-02-11T15:40:24.168Z,98829.30
2019-02-11T15:42:53.324Z,98831.84
2019-02-11T15:45:22.414Z,98836.04
2019-02-11T15:47:51.437Z,98830.90
2019-02-11T15:50:20.622Z,98826.69
2019-02-11T15:52:49.862Z,98820.62
2019-02-11T15:55:20.302Z,98809.12
2019-02-11T15:57:49.541Z,98800.14
2019-02-11T16:00:22.809Z,98805.56
2019-02-11T16:02:52.293Z,98791.45
2019-02-11T16:05:21.543Z,98789.98
2019-02-11T16:07:50.796Z,98787.03
2019-02-11T16:10:22.818Z,98773.16
2019-02-11T16:12:51.859Z,98775.55
2019-02-11T16:15:21.012Z,98777.70
2019-02-11T16:17:49.720Z,98790.32
2019-02-11T16:20:18.950Z,98786.92
2019-02-11T16:22:48.192Z,98788.18
2019-02-11T16:25:17.383Z,98791.63
2019-02-11T16:27:46.640Z,98786.48
2019-02-11T16:30:21.930Z,98775.71
2019-02-11T16:32:51.270Z,98759.03
2019-02-11T16:35:20.448Z,98754.53
2019-02-11T16:37:49.084Z,98755.61
2019-02-11T16:40:23.318Z,98762.58
2019-02-11T16:42:51.944Z,98782.55
2019-02-11T16:45:20.430Z,98794.06
2019-02-11T16:47:49.411Z,98797.92
2019-02-11T16:50:17.980Z,98791.74
2019-02-11T16:52:47.634Z,98782.09
2019-02-11T16:55:16.287Z,98768.55
2019-02-11T16:57:44.862Z,98764.77
2019-02-11T17:00:18.287Z,98772.48
2019-02-11T17:02:46.971Z,98774.73
2019-02-11T17:05:15.614Z,98778.39
2019-02-11T17:07:44.146Z,98759.72
2019-02-11T17:10:14.200Z,98726.57
2019-02-11T17:12:42.860Z,98720.36
2019-02-11T17:15:19.127Z,98720.58
2019-02-11T17:17:47.661Z,98742.75
2019-02-11T17:20:18.051Z,98749.87
2019-02-11T17:22:46.613Z,98756.11
2019-02-11T17:25:15.503Z,98742.94
2019-02-11T17:27:44.089Z,98739.57
2019-02-11T17:30:21.395Z,98749.52
2019-02-11T17:32:49.959Z,98748.92
2019-02-11T17:35:18.539Z,98751.59
2019-02-11T17:37:47.196Z,98753.09
2019-02-11T17:40:15.782Z,98739.13
2019-02-11T17:42:44.289Z,98734.06
2019-02-11T17:45:17.095Z,98738.97
2019-02-11T17:47:45.598Z,98739.05
2019-02-11T17:50:15.236Z,98734.17
2019-02-11T17:52:43.886Z,98729.26
2019-02-11T17:55:14.057Z,98731.86
2019-02-11T17:57:42.716Z,98732.59
2019-02-11T18:00:31.277Z,98728.16
2019-02-11T18:02:59.914Z,98719.03
2019-02-11T18:05:28.582Z,98718.47
2019-02-11T18:07:57.266Z,98720.63
2019-02-11T18:10:25.940Z,98708.64
2019-02-11T18:12:56.157Z,98708.17
2019-02-11T18:15:24.776Z,98702.33
2019-02-11T18:17:53.439Z,98717.77
2019-02-11T18:20:22.094Z,98713.52
2019-02-11T18:22:50.584Z,98710.67
2019-02-11T18:25:19.243Z,98705.25
2019-02-11T18:27:47.901Z,98706.72
2019-02-11T18:30:16.655Z,98708.66
2019-02-11T18:32:45.272Z,98726.52
2019-02-11T18:35:16.077Z,98713.09
2019-02-11T18:37:44.764Z,98717.20
2019-02-11T18:40:14.998Z,98721.84
2019-02-11T18:42:43.564Z,98704.50
2019-02-11T18:45:14.289Z,98707.81
2019-02-11T18:47:42.886Z,98703.09
2019-02-11T18:50:13.602Z,98698.77
2019-02-11T18:52:42.230Z,98695.80
2019-02-11T18:55:12.656Z,98690.48
2019-02-11T18:57:41.350Z,98686.28
2019-02-11T19:00:37.753Z,98690.48
2019-02-11T19:03:06.355Z,98695.75
2019-02-11T19:05:34.963Z,98680.66
2019-02-11T19:08:03.515Z,98675.02
2019-02-11T19:10:32.233Z,98672.48
2019-02-11T19:13:00.819Z,98676.62
2019-02-11T19:15:29.474Z,98683.06
2019-02-11T19:17:58.111Z,98501.63
2019-02-11T19:20:26.771Z,98682.92
2019-02-11T19:22:55.380Z,98681.98
2019-02-11T19:25:23.968Z,98681.58
2019-02-11T19:27:52.617Z,98657.13
2019-02-11T19:30:25.640Z,98666.34
2019-02-11T19:32:54.331Z,98678.13
2019-02-11T19:35:22.911Z,98670.98
2019-02-11T19:37:51.578Z,98670.92
2019-02-11T19:40:20.934Z,98680.77
2019-02-11T19:42:49.609Z,98675.23
2019-02-11T19:45:41.924Z,98674.33
2019-02-11T19:48:10.576Z,98657.00
2019-02-11T19:50:39.155Z,98660.27
2019-02-11T19:53:08.749Z,98664.95
2019-02-11T19:55:37.993Z,98665.22
2019-02-11T19:58:06.636Z,98664.45
2019-02-11T20:00:35.371Z,98659.06
2019-02-11T20:03:03.975Z,98676.77
2019-02-11T20:05:32.579Z,98679.01
2019-02-11T20:08:01.142Z,98677.53
2019-02-11T20:10:29.788Z,98671.33
2019-02-11T20:12:58.443Z,98664.19
2019-02-11T20:15:31.779Z,98657.99
2019-02-11T20:18:00.424Z,98656.81
2019-02-11T20:20:28.985Z,98647.92
2019-02-11T20:22:57.625Z,98655.00
2019-02-11T20:25:26.265Z,98654.47
2019-02-11T20:27:55.441Z,98653.50
2019-02-11T20:30:28.863Z,98659.17
2019-02-11T20:32:57.447Z,98643.68
2019-02-11T20:35:26.101Z,98647.28
2019-02-11T20:37:54.662Z,98653.27
2019-02-11T20:40:26.063Z,98637.00
2019-02-11T20:42:54.627Z,98622.61
2019-02-11T20:45:47.073Z,98611.69
2019-02-11T20:48:15.654Z,98619.40
2019-02-11T20:50:44.298Z,98609.62
2019-02-11T20:53:12.937Z,98614.83
2019-02-11T20:55:42.599Z,98607.35
2019-02-11T20:58:11.086Z,98610.55
2019-02-11T21:00:39.726Z,98609.79
2019-02-11T21:03:08.762Z,98606.15
2019-02-11T21:05:37.516Z,98612.36
2019-02-11T21:08:06.011Z,98618.00
2019-02-11T21:10:34.582Z,98622.09
2019-02-11T21:13:03.231Z,98606.27
2019-02-11T21:15:31.810Z,98601.06
2019-02-11T21:18:00.378Z,98609.97
2019-02-11T21:20:37.751Z,98606.44
2019-02-11T21:23:07.977Z,98608.84
2019-02-11T21:25:36.558Z,98606.64
2019-02-11T21:28:05.144Z,98598.50
2019-02-11T21:30:33.770Z,98596.70
2019-02-11T21:33:02.396Z,98596.33
2019-02-11T21:35:31.010Z,98588.42
2019-02-11T21:37:59.514Z,98598.20
2019-02-11T21:40:27.938Z,98603.44
2019-02-11T21:42:56.444Z,98587.61
2019-02-11T21:45:25.064Z,98592.31
2019-02-11T21:47:53.635Z,98575.06
2019-02-11T21:50:26.628Z,98562.95
2019-02-11T21:52:52.352Z,98553.93
2019-02-11T21:55:22.991Z,98563.19
2019-02-11T21:57:51.535Z,98570.17
2019-02-11T22:00:22.252Z,98560.29
2019-02-11T22:02:50.913Z,98554.52
2019-02-11T22:05:19.492Z,98547.36
2019-02-11T22:07:47.990Z,98547.55
2019-02-11T22:10:23.382Z,98541.92
2019-02-11T22:12:52.027Z,98541.16
2019-02-11T22:15:20.525Z,98537.46
2019-02-11T22:17:50.686Z,98524.41
2019-02-11T22:20:20.591Z,98528.66
2019-02-11T22:22:49.177Z,98532.69
2019-02-11T22:25:17.750Z,98520.11
2019-02-11T22:27:46.307Z,98500.15
2019-02-11T22:30:16.982Z,98519.95
2019-02-11T22:32:45.562Z,98526.62
2019-02-11T22:35:14.043Z,98522.19
2019-02-11T22:37:42.682Z,98514.45
2019-02-11T22:40:15.084Z,98535.80
2019-02-11T22:42:43.645Z,98539.47
2019-02-11T22:45:41.340Z,98545.15
2019-02-11T22:48:09.995Z,98543.67
2019-02-11T22:50:43.228Z,98533.45
2019-02-11T22:53:08.983Z,98526.17
2019-02-11T22:55:37.617Z,98516.45
2019-02-11T22:58:06.085Z,98528.86
2019-02-11T23:00:46.428Z,98541.09
2019-02-11T23:03:15.072Z,98535.43
2019-02-11T23:05:43.777Z,98538.88
2019-02-11T23:08:12.469Z,98546.52
2019-02-11T23:10:40.977Z,98550.41
2019-02-11T23:13:09.594Z,98542.84
2019-02-11T23:15:38.103Z,98553.95
2019-02-11T23:18:06.657Z,98559.05
2019-02-11T23:20:35.172Z,98560.29
2019-02-11T23:23:03.671Z,98565.25
2019-02-11T23:25:32.243Z,98567.56
2019-02-11T23:28:01.303Z,98588.27
2019-02-11T23:30:29.901Z,98608.19
2019-02-11T23:32:58.469Z,98588.27
2019-02-11T23:35:27.036Z,98599.81
2019-02-11T23:37:55.465Z,98614.67
2019-02-11T23:40:23.892Z,98619.66
2019-02-11T23:42:52.453Z,98622.47
2019-02-11T23:45:21.018Z,98613.91
2019-02-11T23:47:49.593Z,98615.42
2019-02-11T23:50:18.150Z,98637.63
2019-02-11T23:52:46.633Z,98642.04
2019-02-11T23:55:15.186Z,98646.50
2019-02-11T23:57:43.667Z,98638.00
